Time;durP1;ratioP1;P1;durP2;ratioP2;P2;SDS_P1;SDS_P2;PMS_P1;PMS_P2;Temp;Humidity;BMP_temperature;BMP_pressure;BME280_temperature;BME280_humidity;BME280_pressure;Samples;Min_cycle;Max_cycle;Signal;HPM_P1;HPM_P2
2023/03/11 00:01:39;;;;;;;;;;;;;;;;;;5077608;28;19920;-63
2023/03/11 00:04:05;;;;;;;;;;;;;;;;;;5098412;28;20298;-64
2023/03/11 00:06:31;;;;;;;;;;;;;;;;;;5098530;28;19920;-63
2023/03/11 00:08:57;;;;;;;;;;;;;;;;;;5088808;28;19924;-63
2023/03/11 00:11:24;;;;;;;;;;;;;;;;;;5073365;28;20404;-64
2023/03/11 00:13:49;;;;;;;;;;;;;;;;;;5091037;28;19924;-64
2023/03/11 00:16:15;;;;;;;;;;;;;;;;;;5088456;28;19920;-63
2023/03/11 00:18:41;;;;;;;;;;;;;;;;;;5073695;28;19923;-63
2023/03/11 00:21:07;;;;;;;;;;;;;;;;;;5088356;28;19928;-63
2023/03/11 00:23:34;;;;;;;;;;;;;;;;;;5090801;28;20018;-63
2023/03/11 00:26:01;;;;;;;;;;;;;;;;;;5080109;28;19920;-63
2023/03/11 00:28:27;;;;;;;;;;;;;;;;;;5091648;28;19924;-63
2023/03/11 00:30:53;;;;;;;;;;;;;;;;;;5073477;28;19927;-63
2023/03/11 00:33:19;;;;;;;;;;;;;;;;;;5075395;28;19931;-63
2023/03/11 00:35:45;;;;;;;;;;;;;;;;;;5095468;28;19920;-63
2023/03/11 00:38:11;;;;;;;;;;;;;;;;;;5071050;28;19924;-63
2023/03/11 00:40:37;;;;;;;;;;;;;;;;;;5066437;28;20054;-63
2023/03/11 00:43:03;;;;;;;;;;;;;;;;;;5094218;28;19943;-63
2023/03/11 00:45:29;;;;;;;;;;;;;;;;;;5085941;28;20012;-63
2023/03/11 00:47:55;;;;;;;;;;;;;;;;;;5080613;28;20336;-63
2023/03/11 00:50:21;;;;;;;;;;;;;;;;;;5076091;28;19920;-62
2023/03/11 00:52:47;;;;;;;;;;;;;;;;;;5060231;28;20007;-63
2023/03/11 00:55:12;;;;;;;;;;;;;;;;;;5094630;28;19969;-63
2023/03/11 00:57:39;;;;;;;;;;;;;;;;;;5084470;28;19960;-63
2023/03/11 01:00:08;;;;;;;;;;;;;;;;;;5094792;28;19960;-64
2023/03/11 01:02:34;;;;;;;;;;;;;;;;;;5091535;28;19963;-63
2023/03/11 01:04:59;;;;;;;;;;;;;;;;;;5074654;28;19955;-63
2023/03/11 01:07:25;;;;;;;;;;;;;;;;;;5076217;28;19927;-63
2023/03/11 01:09:51;;;;;;;;;;;;;;;;;;5094886;28;19997;-63
2023/03/11 01:12:17;;;;;;;;;;;;;;;;;;5058513;28;19928;-63
2023/03/11 01:14:43;;;;;;;;;;;;;;;;;;5091353;28;20369;-63
2023/03/11 01:17:09;;;;;;;;;;;;;;;;;;5096434;28;19927;-63
2023/03/11 01:19:35;;;;;;;;;;;;;;;;;;5083939;22;20026;-64
2023/03/11 01:22:01;;;;;;;;;;;;;;;;;;5054944;28;20343;-64
2023/03/11 01:24:26;;;;;;;;;;;;;;;;;;5074249;28;19924;-64
2023/03/11 01:26:52;;;;;;;;;;;;;;;;;;5073681;28;19928;-64
2023/03/11 01:29:18;;;;;;;;;;;;;;;;;;5074382;28;19925;-64
2023/03/11 01:31:44;;;;;;;;;;;;;;;;;;5073642;28;20387;-64
2023/03/11 01:34:11;;;;;;;;;;;;;;;;;;5073535;28;19920;-64
2023/03/11 01:36:37;;;;;;;;;;;;;;;;;;5072317;28;19928;-64
2023/03/11 01:39:03;;;;;;;;;;;;;;;;;;5074532;28;19924;-64
2023/03/11 01:41:29;;;;;;;;;;;;;;;;;;5074492;28;20002;-64
2023/03/11 01:43:55;;;;;;;;;;;;;;;;;;5073126;28;20011;-64
2023/03/11 01:46:20;;;;;;;;;;;;;;;;;;5055305;28;19920;-64
2023/03/11 01:48:46;;;;;;;;;;;;;;;;;;5070208;28;19924;-64
2023/03/11 01:51:12;;;;;;;;;;;;;;;;;;5065811;28;20485;-64
2023/03/11 01:53:38;;;;;;;;;;;;;;;;;;5068949;28;20409;-64
2023/03/11 01:56:04;;;;;;;;;;;;;;;;;;5073526;28;19981;-64
2023/03/11 01:58:30;;;;;;;;;;;;;;;;;;5070347;28;19928;-65
2023/03/11 02:00:56;;;;;;;;;;;;;;;;;;5048426;28;19970;-64
2023/03/11 02:03:22;;;;;;;;;;;;;;;;;;5070336;28;19921;-64
2023/03/11 02:05:48;;;;;;;;;;;;;;;;;;5071626;28;19974;-65
2023/03/11 02:08:14;;;;;;;;;;;;;;;;;;5053018;28;19925;-64
2023/03/11 02:10:40;;;;;;;;;;;;;;;;;;5069824;28;20389;-64
2023/03/11 02:13:06;;;;;;;;;;;;;;;;;;5053663;28;19920;-64
2023/03/11 02:15:32;;;;;;;;;;;;;;;;;;5071578;28;19928;-65
2023/03/11 02:17:58;;;;;;;;;;;;;;;;;;5073799;28;20012;-64
2023/03/11 02:20:23;;;;;;;;;;;;;;;;;;5070545;28;19929;-64
2023/03/11 02:22:50;;;;;;;;;;;;;;;;;;5071927;28;20346;-64
2023/03/11 02:25:16;;;;;;;;;;;;;;;;;;5070660;28;19924;-65
2023/03/11 02:27:43;;;;;;;;;;;;;;;;;;5063900;28;19921;-64
2023/03/11 02:30:09;;;;;;;;;;;;;;;;;;5060117;28;19924;-64
2023/03/11 02:32:35;;;;;;;;;;;;;;;;;;5051516;28;19927;-64
2023/03/11 02:35:01;;;;;;;;;;;;;;;;;;5065921;28;19944;-64
2023/03/11 02:37:27;;;;;;;;;;;;;;;;;;5070913;28;20327;-64
2023/03/11 02:39:53;;;;;;;;;;;;;;;;;;5051066;28;19935;-64
2023/03/11 02:42:19;;;;;;;;;;;;;;;;;;5072300;28;19928;-64
2023/03/11 02:44:45;;;;;;;;;;;;;;;;;;5050980;28;20307;-64
2023/03/11 02:47:11;;;;;;;;;;;;;;;;;;5031045;28;19992;-64
2023/03/11 02:49:37;;;;;;;;;;;;;;;;;;5051304;28;20323;-64
2023/03/11 02:52:02;;;;;;;;;;;;;;;;;;5053052;28;19927;-64
2023/03/11 02:54:28;;;;;;;;;;;;;;;;;;5061114;28;20332;-64
2023/03/11 02:56:54;;;;;;;;;;;;;;;;;;5070004;28;19959;-64
2023/03/11 02:59:20;;;;;;;;;;;;;;;;;;5052811;28;20381;-64
2023/03/11 03:01:46;;;;;;;;;;;;;;;;;;5071425;28;19920;-64
2023/03/11 03:04:12;;;;;;;;;;;;;;;;;;5068259;28;19930;-65
2023/03/11 03:06:38;;;;;;;;;;;;;;;;;;5072646;28;19951;-65
2023/03/11 03:09:04;;;;;;;;;;;;;;;;;;5070331;28;19927;-64
2023/03/11 03:11:30;;;;;;;;;;;;;;;;;;5053265;28;19925;-65
2023/03/11 03:13:55;;;;;;;;;;;;;;;;;;5069670;28;20381;-64
2023/03/11 03:16:21;;;;;;;;;;;;;;;;;;5070262;28;19924;-64
2023/03/11 03:18:47;;;;;;;;;;;;;;;;;;5057968;28;19928;-64
2023/03/11 03:21:13;;;;;;;;;;;;;;;;;;5060960;28;19920;-64
2023/03/11 03:23:39;;;;;;;;;;;;;;;;;;5066986;28;20297;-64
2023/03/11 03:26:05;;;;;;;;;;;;;;;;;;5072329;28;19920;-64
2023/03/11 03:28:31;;;;;;;;;;;;;;;;;;5070570;28;19931;-64
2023/03/11 03:30:57;;;;;;;;;;;;;;;;;;5044858;28;20282;-64
2023/03/11 03:33:23;;;;;;;;;;;;;;;;;;5071992;28;19927;-64
2023/03/11 03:35:48;;;;;;;;;;;;;;;;;;5067465;28;19999;-64
2023/03/11 03:38:14;;;;;;;;;;;;;;;;;;5052094;28;19924;-64
2023/03/11 03:40:40;;;;;;;;;;;;;;;;;;5053396;28;19925;-64
2023/03/11 03:43:06;;;;;;;;;;;;;;;;;;5050682;28;20418;-64
2023/03/11 03:45:32;;;;;;;;;;;;;;;;;;5059953;28;19920;-63
2023/03/11 03:47:58;;;;;;;;;;;;;;;;;;5054837;28;19971;-64
2023/03/11 03:50:24;;;;;;;;;;;;;;;;;;5065857;28;20010;-64
2023/03/11 03:52:50;;;;;;;;;;;;;;;;;;5056270;28;19921;-64
2023/03/11 03:55:16;;;;;;;;;;;;;;;;;;5065934;28;20342;-64
2023/03/11 03:57:41;;;;;;;;;;;;;;;;;;5067621;28;19924;-64
2023/03/11 04:00:10;;;;;;;;;;;;;;;;;;5048067;28;19925;-64
2023/03/11 04:02:36;;;;;;;;;;;;;;;;;;5050667;28;19927;-64
2023/03/11 04:05:02;;;;;;;;;;;;;;;;;;5066738;28;20289;-64
2023/03/11 04:07:28;;;;;;;;;;;;;;;;;;5069312;28;19928;-64
2023/03/11 04:09:54;;;;;;;;;;;;;;;;;;5055644;28;19927;-64
2023/03/11 04:12:20;;;;;;;;;;;;;;;;;;5054713;28;19932;-64
2023/03/11 04:14:47;;;;;;;;;;;;;;;;;;5053602;28;19928;-64
2023/03/11 04:17:13;;;;;;;;;;;;;;;;;;5047522;28;19973;-64
2023/03/11 04:19:39;;;;;;;;;;;;;;;;;;5069193;28;20556;-63
2023/03/11 04:22:05;;;;;;;;;;;;;;;;;;5071228;28;20551;-63
2023/03/11 04:24:31;;;;;;;;;;;;;;;;;;5053566;28;20016;-63
2023/03/11 04:26:57;;;;;;;;;;;;;;;;;;5070088;28;19966;-63
2023/03/11 04:29:22;;;;;;;;;;;;;;;;;;5072238;28;20818;-63
2023/03/11 04:31:48;;;;;;;;;;;;;;;;;;5071441;28;19932;-63
2023/03/11 04:34:14;;;;;;;;;;;;;;;;;;5069492;28;19924;-63
2023/03/11 04:36:40;;;;;;;;;;;;;;;;;;5051039;28;19956;-63
2023/03/11 04:39:06;;;;;;;;;;;;;;;;;;5070032;28;19978;-63
2023/03/11 04:41:32;;;;;;;;;;;;;;;;;;5072477;28;19928;-63
2023/03/11 04:43:58;;;;;;;;;;;;;;;;;;5070415;28;19931;-63
2023/03/11 04:46:24;;;;;;;;;;;;;;;;;;5069939;28;19928;-63
2023/03/11 04:48:49;;;;;;;;;;;;;;;;;;5067571;28;20581;-63
2023/03/11 04:51:15;;;;;;;;;;;;;;;;;;5071740;28;19924;-63
2023/03/11 04:53:41;;;;;;;;;;;;;;;;;;5069612;28;20380;-63
2023/03/11 04:56:07;;;;;;;;;;;;;;;;;;5079957;28;19928;-63
2023/03/11 04:58:33;;;;;;;;;;;;;;;;;;5069050;28;19920;-63
2023/03/11 05:00:59;;;;;;;;;;;;;;;;;;5083103;28;20393;-63
2023/03/11 05:03:25;;;;;;;;;;;;;;;;;;5059127;28;20447;-63
2023/03/11 05:05:55;;;;;;;;;;;;;;;;;;5071798;28;20616;-63
2023/03/11 05:08:21;;;;;;;;;;;;;;;;;;5056798;28;19963;-63
2023/03/11 05:10:47;;;;;;;;;;;;;;;;;;5059885;28;19964;-63
2023/03/11 05:13:13;;;;;;;;;;;;;;;;;;5073311;28;20286;-63
2023/03/11 05:15:38;;;;;;;;;;;;;;;;;;5069601;28;20003;-63
2023/03/11 05:18:04;;;;;;;;;;;;;;;;;;5071672;28;19924;-63
2023/03/11 05:20:31;;;;;;;;;;;;;;;;;;5070239;28;20333;-63
2023/03/11 05:22:57;;;;;;;;;;;;;;;;;;5053809;28;19971;-63
2023/03/11 05:25:22;;;;;;;;;;;;;;;;;;5071298;28;19927;-62
2023/03/11 05:27:48;;;;;;;;;;;;;;;;;;5055263;28;19928;-63
2023/03/11 05:30:14;;;;;;;;;;;;;;;;;;5071250;28;20629;-62
2023/03/11 05:32:40;;;;;;;;;;;;;;;;;;5064654;28;19999;-62
2023/03/11 05:35:06;;;;;;;;;;;;;;;;;;5072366;28;19924;-62
2023/03/11 05:37:32;;;;;;;;;;;;;;;;;;5072395;28;19932;-62
2023/03/11 05:39:58;;;;;;;;;;;;;;;;;;5070253;28;19928;-62
2023/03/11 05:42:24;;;;;;;;;;;;;;;;;;5073157;28;20293;-62
2023/03/11 05:44:49;;;;;;;;;;;;;;;;;;5066474;28;19921;-62
2023/03/11 05:47:15;;;;;;;;;;;;;;;;;;5069933;28;20048;-63
2023/03/11 05:49:41;;;;;;;;;;;;;;;;;;5069015;28;19924;-63
2023/03/11 05:52:07;;;;;;;;;;;;;;;;;;5070751;28;19927;-63
2023/03/11 05:54:34;;;;;;;;;;;;;;;;;;5068910;28;19977;-63
2023/03/11 05:57:00;;;;;;;;;;;;;;;;;;5068896;28;20360;-63
2023/03/11 05:59:26;;;;;;;;;;;;;;;;;;5068551;28;20386;-62
2023/03/11 06:01:51;;;;;;;;;;;;;;;;;;5069994;28;20003;-62
2023/03/11 06:04:17;;;;;;;;;;;;;;;;;;5068229;28;19924;-62
2023/03/11 06:06:43;;;;;;;;;;;;;;;;;;5054582;28;19927;-62
2023/03/11 06:09:09;;;;;;;;;;;;;;;;;;5071040;28;19928;-62
2023/03/11 06:11:35;;;;;;;;;;;;;;;;;;5069254;28;19928;-62
2023/03/11 06:14:01;;;;;;;;;;;;;;;;;;5071901;28;20369;-62
2023/03/11 06:16:27;;;;;;;;;;;;;;;;;;5070890;28;19935;-62
2023/03/11 06:18:53;;;;;;;;;;;;;;;;;;5059339;28;19931;-62
2023/03/11 06:21:19;;;;;;;;;;;;;;;;;;5067035;28;20393;-62
2023/03/11 06:23:45;;;;;;;;;;;;;;;;;;5069078;28;19921;-62
2023/03/11 06:26:10;;;;;;;;;;;;;;;;;;5064857;28;20285;-62
2023/03/11 06:28:36;;;;;;;;;;;;;;;;;;5052355;28;19924;-62
2023/03/11 06:31:02;;;;;;;;;;;;;;;;;;5067332;28;20114;-62
2023/03/11 06:33:28;;;;;;;;;;;;;;;;;;5070160;28;19927;-62
2023/03/11 06:35:54;;;;;;;;;;;;;;;;;;5062447;28;19929;-62
2023/03/11 06:38:20;;;;;;;;;;;;;;;;;;5050755;28;19935;-62
2023/03/11 06:40:46;;;;;;;;;;;;;;;;;;5071759;28;19925;-63
2023/03/11 06:43:12;;;;;;;;;;;;;;;;;;5069901;28;19931;-62
2023/03/11 06:45:38;;;;;;;;;;;;;;;;;;5063552;28;19924;-62
2023/03/11 06:48:03;;;;;;;;;;;;;;;;;;5066003;28;19928;-62
2023/03/11 06:50:29;;;;;;;;;;;;;;;;;;5066724;28;19947;-62
2023/03/11 06:52:56;;;;;;;;;;;;;;;;;;5067953;28;20386;-62
2023/03/11 06:55:21;;;;;;;;;;;;;;;;;;5062344;28;19971;-63
2023/03/11 06:57:47;;;;;;;;;;;;;;;;;;5060519;28;19982;-62
2023/03/11 07:00:13;;;;;;;;;;;;;;;;;;5047431;28;20022;-62
2023/03/11 07:02:39;;;;;;;;;;;;;;;;;;5061776;28;20022;-62
2023/03/11 07:05:06;;;;;;;;;;;;;;;;;;5068224;28;19975;-62
2023/03/11 07:07:31;;;;;;;;;;;;;;;;;;5069446;28;19926;-62
2023/03/11 07:09:57;;;;;;;;;;;;;;;;;;5064023;28;19925;-62
2023/03/11 07:12:24;;;;;;;;;;;;;;;;;;5071085;28;19924;-62
2023/03/11 07:14:50;;;;;;;;;;;;;;;;;;5052839;28;19920;-62
2023/03/11 07:17:15;;;;;;;;;;;;;;;;;;5071923;28;19965;-64
2023/03/11 07:19:41;;;;;;;;;;;;;;;;;;5059380;22;19925;-64
2023/03/11 07:22:07;;;;;;;;;;;;;;;;;;5046867;28;19935;-64
2023/03/11 07:24:33;;;;;;;;;;;;;;;;;;5043209;28;19925;-64
2023/03/11 07:26:59;;;;;;;;;;;;;;;;;;5050124;28;20285;-64
2023/03/11 07:29:25;;;;;;;;;;;;;;;;;;5024620;28;19920;-64
2023/03/11 07:31:51;;;;;;;;;;;;;;;;;;5046501;28;19932;-64
2023/03/11 07:34:17;;;;;;;;;;;;;;;;;;5050573;28;20305;-64
2023/03/11 07:36:43;;;;;;;;;;;;;;;;;;5048519;28;19927;-64
2023/03/11 07:39:09;;;;;;;;;;;;;;;;;;5049857;28;19924;-64
2023/03/11 07:41:35;;;;;;;;;;;;;;;;;;5041505;28;19928;-65
2023/03/11 07:44:01;;;;;;;;;;;;;;;;;;5049232;28;19921;-64
2023/03/11 07:46:27;;;;;;;;;;;;;;;;;;5029577;28;19928;-64
2023/03/11 07:48:53;;;;;;;;;;;;;;;;;;5045545;28;19925;-64
2023/03/11 07:51:18;;;;;;;;;;;;;;;;;;5047140;28;19931;-64
2023/03/11 07:53:44;;;;;;;;;;;;;;;;;;5048992;28;20359;-64
2023/03/11 07:56:10;;;;;;;;;;;;;;;;;;5015278;28;20008;-64
2023/03/11 07:58:36;;;;;;;;;;;;;;;;;;5028910;28;20392;-64
2023/03/11 08:01:03;;;;;;;;;;;;;;;;;;5041843;28;19929;-64
2023/03/11 08:03:28;;;;;;;;;;;;;;;;;;5028631;28;19921;-64
2023/03/11 08:05:54;;;;;;;;;;;;;;;;;;5030162;28;19925;-64
2023/03/11 08:08:20;;;;;;;;;;;;;;;;;;5045791;28;20402;-64
2023/03/11 08:10:46;;;;;;;;;;;;;;;;;;5040966;28;19936;-63
2023/03/11 08:13:12;;;;;;;;;;;;;;;;;;5018615;28;19921;-64
2023/03/11 08:15:38;;;;;;;;;;;;;;;;;;5046079;28;20290;-64
2023/03/11 08:18:04;;;;;;;;;;;;;;;;;;5047243;28;19939;-64
2023/03/11 08:20:30;;;;;;;;;;;;;;;;;;5047167;28;19968;-64
2023/03/11 08:22:56;;;;;;;;;;;;;;;;;;5049265;28;19928;-64
2023/03/11 08:25:21;;;;;;;;;;;;;;;;;;5050503;28;19921;-64
2023/03/11 08:27:47;;;;;;;;;;;;;;;;;;5051666;28;20011;-64
2023/03/11 08:30:13;;;;;;;;;;;;;;;;;;5049277;28;19927;-65
2023/03/11 08:32:39;;;;;;;;;;;;;;;;;;5049027;28;19921;-64
2023/03/11 08:35:05;;;;;;;;;;;;;;;;;;5049520;28;19924;-64
2023/03/11 08:37:31;;;;;;;;;;;;;;;;;;5050053;28;20369;-63
2023/03/11 08:39:57;;;;;;;;;;;;;;;;;;5048579;28;19925;-63
2023/03/11 08:42:23;;;;;;;;;;;;;;;;;;5044319;28;19925;-65
2023/03/11 08:44:49;;;;;;;;;;;;;;;;;;5050559;28;19982;-64
2023/03/11 08:47:15;;;;;;;;;;;;;;;;;;5020131;28;20190;-64
2023/03/11 08:49:41;;;;;;;;;;;;;;;;;;5039078;28;19924;-63
2023/03/11 08:52:07;;;;;;;;;;;;;;;;;;5047930;28;19928;-65
2023/03/11 08:54:32;;;;;;;;;;;;;;;;;;5042625;28;19974;-64
2023/03/11 08:57:01;;;;;;;;;;;;;;;;;;5054281;28;19925;-64
2023/03/11 08:59:27;;;;;;;;;;;;;;;;;;5051300;28;19940;-64
2023/03/11 09:01:53;;;;;;;;;;;;;;;;;;5054050;28;19920;-65
2023/03/11 09:04:19;;;;;;;;;;;;;;;;;;5053745;28;19920;-65
2023/03/11 09:06:47;;;;;;;;;;;;;;;;;;5053821;28;19932;-65
2023/03/11 09:09:13;;;;;;;;;;;;;;;;;;5051901;28;19924;-65
2023/03/11 09:11:40;;;;;;;;;;;;;;;;;;5042202;28;20259;-65
2023/03/11 09:14:06;;;;;;;;;;;;;;;;;;5052499;28;19925;-65
2023/03/11 09:16:32;;;;;;;;;;;;;;;;;;5053736;28;19925;-65
2023/03/11 09:19:02;;;;;;;;;;;;;;;;;;5033069;28;19932;-65
2023/03/11 09:21:28;;;;;;;;;;;;;;;;;;5049750;28;19924;-65
2023/03/11 09:23:54;;;;;;;;;;;;;;;;;;5051935;28;20038;-65
2023/03/11 09:26:20;;;;;;;;;;;;;;;;;;5039723;28;19956;-65
2023/03/11 09:28:47;;;;;;;;;;;;;;;;;;5033371;28;19927;-65
2023/03/11 09:31:13;;;;;;;;;;;;;;;;;;5033524;28;20386;-65
2023/03/11 09:33:39;;;;;;;;;;;;;;;;;;5051730;28;19967;-66
2023/03/11 09:36:05;;;;;;;;;;;;;;;;;;5046621;28;19982;-66
2023/03/11 09:38:31;;;;;;;;;;;;;;;;;;5051593;28;20010;-66
2023/03/11 09:40:57;;;;;;;;;;;;;;;;;;5042302;28;19928;-67
2023/03/11 09:43:23;;;;;;;;;;;;;;;;;;5030497;28;19931;-66
2023/03/11 09:45:49;;;;;;;;;;;;;;;;;;5048241;28;19932;-66
2023/03/11 09:48:16;;;;;;;;;;;;;;;;;;5052043;28;20498;-66
2023/03/11 09:50:42;;;;;;;;;;;;;;;;;;5028841;28;19929;-67
2023/03/11 09:53:09;;;;;;;;;;;;;;;;;;5049100;28;20374;-65
2023/03/11 09:55:36;;;;;;;;;;;;;;;;;;5051433;28;20262;-65
2023/03/11 09:58:02;;;;;;;;;;;;;;;;;;5050793;28;20435;-66
2023/03/11 10:00:28;;;;;;;;;;;;;;;;;;5046969;28;19933;-66
2023/03/11 10:02:53;;;;;;;;;;;;;;;;;;5047339;28;19974;-66
2023/03/11 10:05:19;;;;;;;;;;;;;;;;;;5047696;28;20313;-65
2023/03/11 10:07:45;;;;;;;;;;;;;;;;;;5049530;28;19921;-66
2023/03/11 10:10:11;;;;;;;;;;;;;;;;;;5048940;28;19972;-65
2023/03/11 10:12:37;;;;;;;;;;;;;;;;;;5052733;28;19924;-65
2023/03/11 10:15:04;;;;;;;;;;;;;;;;;;5049145;28;19972;-65
2023/03/11 10:17:30;;;;;;;;;;;;;;;;;;5024019;28;20370;-66
2023/03/11 10:19:56;;;;;;;;;;;;;;;;;;5043390;28;20015;-66
2023/03/11 10:22:22;;;;;;;;;;;;;;;;;;5051542;28;19920;-67
2023/03/11 10:24:48;;;;;;;;;;;;;;;;;;5052501;28;20413;-66
2023/03/11 10:27:14;;;;;;;;;;;;;;;;;;5052698;28;19931;-66
2023/03/11 10:29:40;;;;;;;;;;;;;;;;;;5032002;28;19951;-66
2023/03/11 10:32:06;;;;;;;;;;;;;;;;;;5047092;28;19967;-66
2023/03/11 10:34:32;;;;;;;;;;;;;;;;;;5049584;28;19963;-66
2023/03/11 10:36:58;;;;;;;;;;;;;;;;;;5051945;28;19979;-66
2023/03/11 10:39:23;;;;;;;;;;;;;;;;;;5051953;28;20035;-66
2023/03/11 10:41:49;;;;;;;;;;;;;;;;;;5050864;28;20011;-66
2023/03/11 10:44:15;;;;;;;;;;;;;;;;;;5032271;28;19943;-65
2023/03/11 10:46:41;;;;;;;;;;;;;;;;;;5050890;28;19921;-66
2023/03/11 10:49:07;;;;;;;;;;;;;;;;;;5051458;28;19925;-65
2023/03/11 10:51:33;;;;;;;;;;;;;;;;;;5048542;28;20284;-65
2023/03/11 10:53:59;;;;;;;;;;;;;;;;;;5047355;28;19972;-65
2023/03/11 10:56:25;;;;;;;;;;;;;;;;;;5050386;28;19921;-65
2023/03/11 10:58:50;;;;;;;;;;;;;;;;;;5049513;28;19925;-64
2023/03/11 11:01:16;;;;;;;;;;;;;;;;;;5031702;28;19920;-65
2023/03/11 11:03:44;;;;;;;;;;;;;;;;;;5050617;28;21399;-65
2023/03/11 11:06:10;;;;;;;;;;;;;;;;;;5032871;28;20015;-65
2023/03/11 11:08:36;;;;;;;;;;;;;;;;;;5050719;28;20000;-65
2023/03/11 11:11:02;;;;;;;;;;;;;;;;;;5050454;28;19928;-65
2023/03/11 11:13:29;;;;;;;;;;;;;;;;;;5051891;28;19925;-65
2023/03/11 11:15:55;;;;;;;;;;;;;;;;;;5040484;28;19932;-65
2023/03/11 11:18:21;;;;;;;;;;;;;;;;;;5032312;28;19925;-65
2023/03/11 11:20:47;;;;;;;;;;;;;;;;;;5048285;28;19932;-65
2023/03/11 11:23:13;;;;;;;;;;;;;;;;;;5051333;28;19924;-65
2023/03/11 11:25:39;;;;;;;;;;;;;;;;;;5051395;28;19931;-65
2023/03/11 11:28:05;;;;;;;;;;;;;;;;;;5049589;28;19933;-65
2023/03/11 11:30:31;;;;;;;;;;;;;;;;;;5033401;28;20577;-65
2023/03/11 11:32:57;;;;;;;;;;;;;;;;;;5051376;28;19921;-65
2023/03/11 11:35:23;;;;;;;;;;;;;;;;;;5050705;28;19931;-65
2023/03/11 11:37:49;;;;;;;;;;;;;;;;;;5051579;28;20390;-65
2023/03/11 11:40:15;;;;;;;;;;;;;;;;;;5049170;28;19925;-65
2023/03/11 11:42:41;;;;;;;;;;;;;;;;;;5051271;28;19939;-65
2023/03/11 11:45:07;;;;;;;;;;;;;;;;;;5050939;28;19928;-65
2023/03/11 11:47:33;;;;;;;;;;;;;;;;;;5051049;28;19920;-65
2023/03/11 11:49:59;;;;;;;;;;;;;;;;;;5048979;28;20409;-65
2023/03/11 11:52:25;;;;;;;;;;;;;;;;;;5049536;28;19927;-65
2023/03/11 11:54:51;;;;;;;;;;;;;;;;;;5047549;28;20401;-65
2023/03/11 11:57:17;;;;;;;;;;;;;;;;;;5050601;28;19920;-65
2023/03/11 11:59:43;;;;;;;;;;;;;;;;;;5049714;28;19924;-65
2023/03/11 12:02:09;;;;;;;;;;;;;;;;;;5050870;28;20011;-65
2023/03/11 12:04:36;;;;;;;;;;;;;;;;;;5051250;28;19925;-65
2023/03/11 12:07:02;;;;;;;;;;;;;;;;;;5050008;28;19978;-65
2023/03/11 12:09:28;;;;;;;;;;;;;;;;;;5049351;28;20375;-65
2023/03/11 12:11:55;;;;;;;;;;;;;;;;;;5050965;28;19971;-65
2023/03/11 12:14:20;;;;;;;;;;;;;;;;;;5044820;28;19929;-65
2023/03/11 12:16:46;;;;;;;;;;;;;;;;;;5049974;28;20290;-65
2023/03/11 12:19:12;;;;;;;;;;;;;;;;;;5046588;28;20011;-65
2023/03/11 12:21:38;;;;;;;;;;;;;;;;;;5048975;28;19921;-66
2023/03/11 12:24:04;;;;;;;;;;;;;;;;;;5051139;28;19924;-66
2023/03/11 12:26:30;;;;;;;;;;;;;;;;;;5050914;28;19999;-66
2023/03/11 12:28:56;;;;;;;;;;;;;;;;;;5054265;28;19920;-66
2023/03/11 12:31:22;;;;;;;;;;;;;;;;;;5036583;28;19933;-65
2023/03/11 12:33:50;;;;;;;;;;;;;;;;;;5054175;28;20038;-65
2023/03/11 12:36:16;;;;;;;;;;;;;;;;;;5051116;28;19928;-65
2023/03/11 12:38:41;;;;;;;;;;;;;;;;;;5036649;28;19925;-65
2023/03/11 12:41:07;;;;;;;;;;;;;;;;;;5054190;28;19925;-66
2023/03/11 12:43:33;;;;;;;;;;;;;;;;;;5054847;28;19928;-65
2023/03/11 12:45:59;;;;;;;;;;;;;;;;;;5054459;28;20472;-65
2023/03/11 12:48:25;;;;;;;;;;;;;;;;;;5036875;28;20368;-65
2023/03/11 12:50:51;;;;;;;;;;;;;;;;;;5034326;28;19964;-65
2023/03/11 12:53:17;;;;;;;;;;;;;;;;;;5054367;28;19931;-65
2023/03/11 12:55:43;;;;;;;;;;;;;;;;;;5051479;28;20641;-66
2023/03/11 12:58:09;;;;;;;;;;;;;;;;;;5019104;28;19925;-66
2023/03/11 13:00:35;;;;;;;;;;;;;;;;;;5054308;28;19933;-66
2023/03/11 13:03:00;;;;;;;;;;;;;;;;;;5054145;28;19943;-66
2023/03/11 13:05:27;;;;;;;;;;;;;;;;;;5052576;28;19920;-66
2023/03/11 13:07:52;;;;;;;;;;;;;;;;;;5035986;28;19931;-66
2023/03/11 13:10:19;;;;;;;;;;;;;;;;;;5053134;28;19921;-66
2023/03/11 13:12:45;;;;;;;;;;;;;;;;;;5053812;28;19921;-66
2023/03/11 13:15:11;;;;;;;;;;;;;;;;;;5035981;28;19931;-65
2023/03/11 13:17:36;;;;;;;;;;;;;;;;;;5053970;28;19921;-64
2023/03/11 13:20:03;;;;;;;;;;;;;;;;;;5048439;28;20628;-64
2023/03/11 13:22:29;;;;;;;;;;;;;;;;;;5016211;28;19975;-65
2023/03/11 13:24:55;;;;;;;;;;;;;;;;;;5052558;28;20030;-64
2023/03/11 13:27:21;;;;;;;;;;;;;;;;;;5047433;28;19921;-64
2023/03/11 13:29:47;;;;;;;;;;;;;;;;;;5031016;28;19956;-65
2023/03/11 13:32:13;;;;;;;;;;;;;;;;;;5029368;28;20004;-65
2023/03/11 13:34:39;;;;;;;;;;;;;;;;;;5044396;28;19924;-65
2023/03/11 13:37:05;;;;;;;;;;;;;;;;;;5053230;28;20361;-65
2023/03/11 13:39:31;;;;;;;;;;;;;;;;;;5048909;28;19925;-65
2023/03/11 13:41:57;;;;;;;;;;;;;;;;;;5053360;28;20015;-65
2023/03/11 13:44:23;;;;;;;;;;;;;;;;;;5038779;28;20362;-65
2023/03/11 13:46:49;;;;;;;;;;;;;;;;;;5034665;28;20290;-65
2023/03/11 13:49:14;;;;;;;;;;;;;;;;;;5040088;28;19932;-66
2023/03/11 13:51:40;;;;;;;;;;;;;;;;;;5053411;28;19928;-65
2023/03/11 13:54:06;;;;;;;;;;;;;;;;;;5052802;28;19928;-65
2023/03/11 13:56:32;;;;;;;;;;;;;;;;;;5051379;28;19966;-65
2023/03/11 13:58:58;;;;;;;;;;;;;;;;;;5034409;28;20461;-65
2023/03/11 14:01:24;;;;;;;;;;;;;;;;;;5050112;28;19924;-64
2023/03/11 14:03:50;;;;;;;;;;;;;;;;;;5047202;28;19977;-66
2023/03/11 14:06:16;;;;;;;;;;;;;;;;;;5051570;28;19920;-65
2023/03/11 14:08:42;;;;;;;;;;;;;;;;;;5030930;28;19940;-65
2023/03/11 14:11:10;;;;;;;;;;;;;;;;;;5043942;28;19933;-66
2023/03/11 14:13:36;;;;;;;;;;;;;;;;;;5050227;28;19920;-64
2023/03/11 14:16:02;;;;;;;;;;;;;;;;;;5052126;28;19928;-64
2023/03/11 14:18:28;;;;;;;;;;;;;;;;;;5042818;28;19925;-64
2023/03/11 14:20:54;;;;;;;;;;;;;;;;;;5052819;28;19971;-65
2023/03/11 14:23:20;;;;;;;;;;;;;;;;;;5048668;28;19972;-65
2023/03/11 14:25:46;;;;;;;;;;;;;;;;;;5052658;28;19928;-65
2023/03/11 14:28:12;;;;;;;;;;;;;;;;;;5050363;28;19920;-64
2023/03/11 14:30:38;;;;;;;;;;;;;;;;;;5050445;28;19951;-65
2023/03/11 14:33:04;;;;;;;;;;;;;;;;;;5028413;28;20007;-64
2023/03/11 14:35:29;;;;;;;;;;;;;;;;;;5034288;28;20425;-64
2023/03/11 14:37:55;;;;;;;;;;;;;;;;;;5048219;28;19932;-64
2023/03/11 14:40:22;;;;;;;;;;;;;;;;;;5051508;28;19940;-64
2023/03/11 14:42:52;;;;;;;;;;;;;;;;;;5051920;28;19920;-66
2023/03/11 14:45:18;;;;;;;;;;;;;;;;;;5050442;28;19924;-64
2023/03/11 14:47:44;;;;;;;;;;;;;;;;;;5029334;28;19935;-64
2023/03/11 14:50:10;;;;;;;;;;;;;;;;;;5043156;28;20579;-64
2023/03/11 14:52:36;;;;;;;;;;;;;;;;;;5049963;28;19964;-65
2023/03/11 14:55:02;;;;;;;;;;;;;;;;;;5049797;28;20247;-66
2023/03/11 14:57:28;;;;;;;;;;;;;;;;;;5044633;28;20449;-65
2023/03/11 14:59:53;;;;;;;;;;;;;;;;;;5048308;28;20329;-65
2023/03/11 15:02:19;;;;;;;;;;;;;;;;;;5049283;28;19925;-66
2023/03/11 15:04:45;;;;;;;;;;;;;;;;;;5043894;28;19935;-66
2023/03/11 15:07:11;;;;;;;;;;;;;;;;;;5050565;28;19933;-65
2023/03/11 15:09:37;;;;;;;;;;;;;;;;;;5034168;28;20361;-65
2023/03/11 15:12:03;;;;;;;;;;;;;;;;;;5050016;28;19978;-66
2023/03/11 15:14:32;;;;;;;;;;;;;;;;;;5050539;28;19921;-65
2023/03/11 15:16:58;;;;;;;;;;;;;;;;;;5046578;28;19948;-65
2023/03/11 15:19:24;;;;;;;;;;;;;;;;;;5042503;28;19967;-65
2023/03/11 15:21:50;;;;;;;;;;;;;;;;;;5043129;28;19929;-65
2023/03/11 15:24:16;;;;;;;;;;;;;;;;;;5048820;28;20336;-65
2023/03/11 15:26:42;;;;;;;;;;;;;;;;;;5042177;28;19924;-65
2023/03/11 15:29:07;;;;;;;;;;;;;;;;;;5048496;28;19920;-66
2023/03/11 15:31:34;;;;;;;;;;;;;;;;;;5042554;28;20351;-65
2023/03/11 15:33:59;;;;;;;;;;;;;;;;;;5043246;28;20641;-65
2023/03/11 15:36:25;;;;;;;;;;;;;;;;;;5046324;28;19921;-65
2023/03/11 15:38:51;;;;;;;;;;;;;;;;;;5048778;28;19928;-66
2023/03/11 15:41:17;;;;;;;;;;;;;;;;;;5044371;28;19928;-65
2023/03/11 15:43:43;;;;;;;;;;;;;;;;;;5049014;28;19974;-65
2023/03/11 15:46:09;;;;;;;;;;;;;;;;;;5043176;28;20325;-65
2023/03/11 15:48:35;;;;;;;;;;;;;;;;;;5044418;28;19921;-65
2023/03/11 15:51:01;;;;;;;;;;;;;;;;;;5048786;28;19925;-66
2023/03/11 15:53:27;;;;;;;;;;;;;;;;;;5050932;28;19963;-65
2023/03/11 15:55:53;;;;;;;;;;;;;;;;;;5048965;28;19932;-65
2023/03/11 15:58:19;;;;;;;;;;;;;;;;;;5050455;28;20404;-66
2023/03/11 16:00:44;;;;;;;;;;;;;;;;;;5047167;28;19929;-65
2023/03/11 16:03:10;;;;;;;;;;;;;;;;;;5038732;28;20286;-65
2023/03/11 16:05:36;;;;;;;;;;;;;;;;;;5055957;28;19930;-65
2023/03/11 16:08:02;;;;;;;;;;;;;;;;;;5055388;28;19998;-65
2023/03/11 16:10:28;;;;;;;;;;;;;;;;;;5057092;28;20436;-65
2023/03/11 16:12:54;;;;;;;;;;;;;;;;;;5055213;28;19920;-65
2023/03/11 16:15:23;;;;;;;;;;;;;;;;;;5054279;28;19970;-65
2023/03/11 16:17:50;;;;;;;;;;;;;;;;;;5053806;28;20290;-65
2023/03/11 16:20:15;;;;;;;;;;;;;;;;;;5057091;28;19925;-65
2023/03/11 16:22:41;;;;;;;;;;;;;;;;;;5054708;28;20306;-66
2023/03/11 16:25:07;;;;;;;;;;;;;;;;;;5054233;28;19972;-66
2023/03/11 16:27:33;;;;;;;;;;;;;;;;;;5054714;28;20329;-66
2023/03/11 16:29:59;;;;;;;;;;;;;;;;;;5056955;28;19975;-65
2023/03/11 16:32:25;;;;;;;;;;;;;;;;;;5057369;28;19964;-65
2023/03/11 16:34:51;;;;;;;;;;;;;;;;;;5055357;28;19947;-68
2023/03/11 16:37:20;;;;;;;;;;;;;;;;;;5051362;28;20274;-66